sensor_id;sensor_type;location;lat;lon;timestamp;temperature;humidity
21787;DHT22;11055;50.870;4.316;2022-09-29T00:00:23;11.90;99.90
21787;DHT22;11055;50.870;4.316;2022-09-29T00:02:48;12.00;99.90
21787;DHT22;11055;50.870;4.316;2022-09-29T00:05:14;11.90;99.90
21787;DHT22;11055;50.870;4.316;2022-09-29T00:07:39;11.70;99.90
21787;DHT22;11055;50.870;4.316;2022-09-29T00:10:05;11.40;99.90
21787;DHT22;11055;50.870;4.316;2022-09-29T00:12:31;11.30;99.90
21787;DHT22;11055;50.870;4.316;2022-09-29T00:14:56;11.00;99.90
21787;DHT22;11055;50.870;4.316;2022-09-29T00:17:22;10.90;99.90
21787;DHT22;11055;50.870;4.316;2022-09-29T00:19:47;10.80;99.90
21787;DHT22;11055;50.870;4.316;2022-09-29T00:22:13;10.90;99.90
21787;DHT22;11055;50.870;4.316;2022-09-29T00:24:38;11.20;99.90
21787;DHT22;11055;50.870;4.316;2022-09-29T00:27:04;11.50;99.90
21787;DHT22;11055;50.870;4.316;2022-09-29T00:29:29;11.60;99.90
21787;DHT22;11055;50.870;4.316;2022-09-29T00:31:55;11.50;99.90
21787;DHT22;11055;50.870;4.316;2022-09-29T00:34:20;11.40;99.90
21787;DHT22;11055;50.870;4.316;2022-09-29T00:36:46;11.40;99.90
21787;DHT22;11055;50.870;4.316;2022-09-29T00:39:11;11.40;99.90
21787;DHT22;11055;50.870;4.316;2022-09-29T00:41:38;11.50;99.90
21787;DHT22;11055;50.870;4.316;2022-09-29T00:49:23;11.60;99.90
21787;DHT22;11055;50.870;4.316;2022-09-29T00:51:55;11.80;99.90
21787;DHT22;11055;50.870;4.316;2022-09-29T00:54:23;11.80;99.90
21787;DHT22;11055;50.870;4.316;2022-09-29T00:56:52;11.60;99.90
21787;DHT22;11055;50.870;4.316;2022-09-29T00:59:21;11.50;99.90
21787;DHT22;11055;50.870;4.316;2022-09-29T01:01:48;11.20;99.90
21787;DHT22;11055;50.870;4.316;2022-09-29T01:04:15;11.10;99.90
21787;DHT22;11055;50.870;4.316;2022-09-29T01:06:43;11.00;99.90
21787;DHT22;11055;50.870;4.316;2022-09-29T01:09:10;11.10;99.90
21787;DHT22;11055;50.870;4.316;2022-09-29T01:11:38;11.00;99.90
21787;DHT22;11055;50.870;4.316;2022-09-29T01:14:05;11.00;99.90
21787;DHT22;11055;50.870;4.316;2022-09-29T01:16:32;11.20;99.90
21787;DHT22;11055;50.870;4.316;2022-09-29T01:19:01;11.20;99.90
21787;DHT22;11055;50.870;4.316;2022-09-29T01:21:38;11.00;99.90
21787;DHT22;11055;50.870;4.316;2022-09-29T01:36:54;10.90;99.90
21787;DHT22;11055;50.870;4.316;2022-09-29T01:39:29;10.60;99.90
21787;DHT22;11055;50.870;4.316;2022-09-29T01:42:10;10.50;99.90
21787;DHT22;11055;50.870;4.316;2022-09-29T01:44:54;10.50;99.90
21787;DHT22;11055;50.870;4.316;2022-09-29T01:47:27;10.60;99.90
21787;DHT22;11055;50.870;4.316;2022-09-29T01:50:09;10.40;99.90
21787;DHT22;11055;50.870;4.316;2022-09-29T01:52:43;10.10;99.90
21787;DHT22;11055;50.870;4.316;2022-09-29T01:55:11;10.00;99.90
21787;DHT22;11055;50.870;4.316;2022-09-29T02:00:16;10.00;99.90
21787;DHT22;11055;50.870;4.316;2022-09-29T02:07:52;10.00;99.90
21787;DHT22;11055;50.870;4.316;2022-09-29T02:10:23;10.00;99.90
21787;DHT22;11055;50.870;4.316;2022-09-29T02:12:50;10.10;99.90
21787;DHT22;11055;50.870;4.316;2022-09-29T02:15:18;10.00;99.90
21787;DHT22;11055;50.870;4.316;2022-09-29T02:17:46;9.90;99.90
21787;DHT22;11055;50.870;4.316;2022-09-29T02:20:14;9.90;99.90
21787;DHT22;11055;50.870;4.316;2022-09-29T02:22:39;9.80;99.90
21787;DHT22;11055;50.870;4.316;2022-09-29T02:25:07;9.70;99.90
21787;DHT22;11055;50.870;4.316;2022-09-29T02:27:33;9.60;99.90
21787;DHT22;11055;50.870;4.316;2022-09-29T02:29:58;9.50;99.90
21787;DHT22;11055;50.870;4.316;2022-09-29T02:32:24;9.50;99.90
21787;DHT22;11055;50.870;4.316;2022-09-29T02:34:50;9.40;99.90
21787;DHT22;11055;50.870;4.316;2022-09-29T02:44:54;9.30;99.90
21787;DHT22;11055;50.870;4.316;2022-09-29T02:47:30;9.30;99.90
21787;DHT22;11055;50.870;4.316;2022-09-29T02:55:15;9.20;99.90
21787;DHT22;11055;50.870;4.316;2022-09-29T02:57:45;9.20;99.90
21787;DHT22;11055;50.870;4.316;2022-09-29T03:00:13;9.20;99.90
21787;DHT22;11055;50.870;4.316;2022-09-29T03:02:40;9.20;99.90
21787;DHT22;11055;50.870;4.316;2022-09-29T03:05:24;9.30;99.90
21787;DHT22;11055;50.870;4.316;2022-09-29T03:07:50;9.30;99.90
21787;DHT22;11055;50.870;4.316;2022-09-29T03:10:16;9.30;99.90
21787;DHT22;11055;50.870;4.316;2022-09-29T03:12:42;9.30;99.90
21787;DHT22;11055;50.870;4.316;2022-09-29T03:15:07;9.50;99.90
21787;DHT22;11055;50.870;4.316;2022-09-29T03:17:33;9.40;99.90
21787;DHT22;11055;50.870;4.316;2022-09-29T03:19:59;9.40;99.90
21787;DHT22;11055;50.870;4.316;2022-09-29T03:22:24;9.40;99.90
21787;DHT22;11055;50.870;4.316;2022-09-29T03:24:50;9.40;99.90
21787;DHT22;11055;50.870;4.316;2022-09-29T03:27:15;9.50;99.90
21787;DHT22;11055;50.870;4.316;2022-09-29T03:29:41;9.60;99.90
21787;DHT22;11055;50.870;4.316;2022-09-29T03:32:07;9.70;99.90
21787;DHT22;11055;50.870;4.316;2022-09-29T03:34:33;9.90;99.90
21787;DHT22;11055;50.870;4.316;2022-09-29T03:36:59;10.00;99.90
21787;DHT22;11055;50.870;4.316;2022-09-29T03:39:24;9.90;99.90
21787;DHT22;11055;50.870;4.316;2022-09-29T03:41:50;10.00;99.90
21787;DHT22;11055;50.870;4.316;2022-09-29T03:44:15;10.00;99.90
21787;DHT22;11055;50.870;4.316;2022-09-29T03:46:41;10.10;99.90
21787;DHT22;11055;50.870;4.316;2022-09-29T03:49:09;10.30;99.90
21787;DHT22;11055;50.870;4.316;2022-09-29T03:51:34;10.40;99.90
21787;DHT22;11055;50.870;4.316;2022-09-29T03:54:00;10.50;99.90
21787;DHT22;11055;50.870;4.316;2022-09-29T03:56:25;10.60;99.90
21787;DHT22;11055;50.870;4.316;2022-09-29T03:58:51;10.50;99.90
21787;DHT22;11055;50.870;4.316;2022-09-29T04:01:16;10.50;99.90
21787;DHT22;11055;50.870;4.316;2022-09-29T04:03:42;10.60;99.90
21787;DHT22;11055;50.870;4.316;2022-09-29T04:06:07;10.70;99.90
21787;DHT22;11055;50.870;4.316;2022-09-29T04:08:36;10.80;99.90
21787;DHT22;11055;50.870;4.316;2022-09-29T04:11:02;10.90;99.90
21787;DHT22;11055;50.870;4.316;2022-09-29T04:13:27;11.00;99.90
21787;DHT22;11055;50.870;4.316;2022-09-29T04:15:56;11.20;99.90
21787;DHT22;11055;50.870;4.316;2022-09-29T04:18:22;11.30;99.90
21787;DHT22;11055;50.870;4.316;2022-09-29T04:20:48;11.30;99.90
21787;DHT22;11055;50.870;4.316;2022-09-29T04:23:14;10.70;99.90
21787;DHT22;11055;50.870;4.316;2022-09-29T04:25:39;10.10;99.90
21787;DHT22;11055;50.870;4.316;2022-09-29T04:28:05;9.80;99.90
21787;DHT22;11055;50.870;4.316;2022-09-29T04:30:30;9.70;99.90
21787;DHT22;11055;50.870;4.316;2022-09-29T04:32:56;9.70;99.90
21787;DHT22;11055;50.870;4.316;2022-09-29T04:35:22;9.80;99.90
21787;DHT22;11055;50.870;4.316;2022-09-29T04:37:47;10.00;99.90
21787;DHT22;11055;50.870;4.316;2022-09-29T04:40:13;10.00;99.90
21787;DHT22;11055;50.870;4.316;2022-09-29T04:42:38;9.70;99.90
21787;DHT22;11055;50.870;4.316;2022-09-29T04:45:04;9.40;99.90
21787;DHT22;11055;50.870;4.316;2022-09-29T04:47:30;9.20;99.90
21787;DHT22;11055;50.870;4.316;2022-09-29T04:49:55;9.10;99.90
21787;DHT22;11055;50.870;4.316;2022-09-29T04:52:21;8.90;99.90
21787;DHT22;11055;50.870;4.316;2022-09-29T04:54:46;8.90;99.90
21787;DHT22;11055;50.870;4.316;2022-09-29T04:57:12;8.80;99.90
21787;DHT22;11055;50.870;4.316;2022-09-29T04:59:37;8.80;99.90
21787;DHT22;11055;50.870;4.316;2022-09-29T05:02:03;8.70;99.90
21787;DHT22;11055;50.870;4.316;2022-09-29T05:04:28;8.70;99.90
21787;DHT22;11055;50.870;4.316;2022-09-29T05:06:54;8.70;99.90
21787;DHT22;11055;50.870;4.316;2022-09-29T05:09:19;8.70;99.90
21787;DHT22;11055;50.870;4.316;2022-09-29T05:11:45;8.70;99.90
21787;DHT22;11055;50.870;4.316;2022-09-29T05:14:10;8.70;99.90
21787;DHT22;11055;50.870;4.316;2022-09-29T05:16:36;8.70;99.90
21787;DHT22;11055;50.870;4.316;2022-09-29T05:19:01;8.80;99.90
21787;DHT22;11055;50.870;4.316;2022-09-29T05:21:27;8.90;99.90
21787;DHT22;11055;50.870;4.316;2022-09-29T05:23:53;9.10;99.90
21787;DHT22;11055;50.870;4.316;2022-09-29T05:26:18;9.40;99.90
21787;DHT22;11055;50.870;4.316;2022-09-29T05:28:45;9.60;99.90
21787;DHT22;11055;50.870;4.316;2022-09-29T05:31:11;10.00;99.90
21787;DHT22;11055;50.870;4.316;2022-09-29T05:33:36;10.10;99.90
21787;DHT22;11055;50.870;4.316;2022-09-29T05:36:06;10.30;99.90
21787;DHT22;11055;50.870;4.316;2022-09-29T05:38:32;10.30;99.90
21787;DHT22;11055;50.870;4.316;2022-09-29T05:41:02;10.10;99.90
21787;DHT22;11055;50.870;4.316;2022-09-29T05:43:28;9.70;99.90
21787;DHT22;11055;50.870;4.316;2022-09-29T05:45:58;9.40;99.90
21787;DHT22;11055;50.870;4.316;2022-09-29T05:48:23;9.30;99.90
21787;DHT22;11055;50.870;4.316;2022-09-29T05:50:49;9.50;99.90
21787;DHT22;11055;50.870;4.316;2022-09-29T05:53:15;9.80;99.90
21787;DHT22;11055;50.870;4.316;2022-09-29T05:55:40;10.00;99.90
21787;DHT22;11055;50.870;4.316;2022-09-29T05:58:06;10.20;99.90
21787;DHT22;11055;50.870;4.316;2022-09-29T06:00:32;10.30;99.90
21787;DHT22;11055;50.870;4.316;2022-09-29T06:02:58;10.50;99.90
21787;DHT22;11055;50.870;4.316;2022-09-29T06:05:24;10.60;99.90
21787;DHT22;11055;50.870;4.316;2022-09-29T06:07:50;10.60;99.90
21787;DHT22;11055;50.870;4.316;2022-09-29T06:10:16;10.40;99.90
21787;DHT22;11055;50.870;4.316;2022-09-29T06:12:41;10.20;99.90
21787;DHT22;11055;50.870;4.316;2022-09-29T06:15:07;10.30;99.90
21787;DHT22;11055;50.870;4.316;2022-09-29T06:17:33;10.30;99.90
21787;DHT22;11055;50.870;4.316;2022-09-29T06:19:59;9.90;99.90
21787;DHT22;11055;50.870;4.316;2022-09-29T06:22:25;9.80;99.90
21787;DHT22;11055;50.870;4.316;2022-09-29T06:24:52;9.60;99.90
21787;DHT22;11055;50.870;4.316;2022-09-29T06:27:17;9.50;99.90
21787;DHT22;11055;50.870;4.316;2022-09-29T06:29:43;9.60;99.90
21787;DHT22;11055;50.870;4.316;2022-09-29T06:32:08;9.60;99.90
21787;DHT22;11055;50.870;4.316;2022-09-29T06:34:34;9.70;99.90
21787;DHT22;11055;50.870;4.316;2022-09-29T06:36:59;9.50;99.90
21787;DHT22;11055;50.870;4.316;2022-09-29T06:39:43;9.50;99.90
21787;DHT22;11055;50.870;4.316;2022-09-29T06:42:09;9.40;99.90
21787;DHT22;11055;50.870;4.316;2022-09-29T06:44:36;9.40;99.90
21787;DHT22;11055;50.870;4.316;2022-09-29T06:47:01;9.30;99.90
21787;DHT22;11055;50.870;4.316;2022-09-29T06:49:27;9.20;99.90
21787;DHT22;11055;50.870;4.316;2022-09-29T06:51:52;9.20;99.90
21787;DHT22;11055;50.870;4.316;2022-09-29T06:54:19;9.20;99.90
21787;DHT22;11055;50.870;4.316;2022-09-29T06:56:46;9.30;99.90
21787;DHT22;11055;50.870;4.316;2022-09-29T06:59:12;9.40;99.90
21787;DHT22;11055;50.870;4.316;2022-09-29T07:01:37;9.40;99.90
21787;DHT22;11055;50.870;4.316;2022-09-29T07:04:03;9.50;99.90
21787;DHT22;11055;50.870;4.316;2022-09-29T07:06:28;9.50;99.90
21787;DHT22;11055;50.870;4.316;2022-09-29T07:08:55;9.50;99.90
21787;DHT22;11055;50.870;4.316;2022-09-29T07:11:20;9.50;99.90
21787;DHT22;11055;50.870;4.316;2022-09-29T07:13:46;9.40;99.90
21787;DHT22;11055;50.870;4.316;2022-09-29T07:16:13;9.30;99.90
21787;DHT22;11055;50.870;4.316;2022-09-29T07:18:39;9.50;99.90
21787;DHT22;11055;50.870;4.316;2022-09-29T07:21:06;9.40;99.90
21787;DHT22;11055;50.870;4.316;2022-09-29T07:23:32;9.40;99.90
21787;DHT22;11055;50.870;4.316;2022-09-29T07:25:58;9.50;99.90
21787;DHT22;11055;50.870;4.316;2022-09-29T07:28:24;9.60;99.90
21787;DHT22;11055;50.870;4.316;2022-09-29T07:33:28;9.80;99.90
21787;DHT22;11055;50.870;4.316;2022-09-29T07:35:54;9.90;99.90
21787;DHT22;11055;50.870;4.316;2022-09-29T07:38:20;9.90;99.90
21787;DHT22;11055;50.870;4.316;2022-09-29T07:40:45;9.90;99.90
21787;DHT22;11055;50.870;4.316;2022-09-29T07:43:11;10.00;99.90
21787;DHT22;11055;50.870;4.316;2022-09-29T07:45:36;9.90;99.90
21787;DHT22;11055;50.870;4.316;2022-09-29T07:48:02;9.90;99.90
21787;DHT22;11055;50.870;4.316;2022-09-29T07:50:28;9.80;99.90
21787;DHT22;11055;50.870;4.316;2022-09-29T07:52:53;9.80;99.90
21787;DHT22;11055;50.870;4.316;2022-09-29T07:55:19;9.80;99.90
21787;DHT22;11055;50.870;4.316;2022-09-29T07:57:48;9.80;99.90
21787;DHT22;11055;50.870;4.316;2022-09-29T08:00:14;9.80;99.90
21787;DHT22;11055;50.870;4.316;2022-09-29T08:02:41;10.00;99.90
21787;DHT22;11055;50.870;4.316;2022-09-29T08:05:07;10.10;99.90
21787;DHT22;11055;50.870;4.316;2022-09-29T08:07:33;10.30;99.90
21787;DHT22;11055;50.870;4.316;2022-09-29T08:09:58;10.50;99.90
21787;DHT22;11055;50.870;4.316;2022-09-29T08:12:24;10.70;99.90
21787;DHT22;11055;50.870;4.316;2022-09-29T08:14:51;10.60;99.90
21787;DHT22;11055;50.870;4.316;2022-09-29T08:17:17;10.50;99.90
21787;DHT22;11055;50.870;4.316;2022-09-29T08:19:42;10.50;99.90
21787;DHT22;11055;50.870;4.316;2022-09-29T08:22:08;10.30;99.90
21787;DHT22;11055;50.870;4.316;2022-09-29T08:24:33;10.40;99.90
21787;DHT22;11055;50.870;4.316;2022-09-29T08:27:01;10.30;99.90
21787;DHT22;11055;50.870;4.316;2022-09-29T08:29:29;10.20;99.90
21787;DHT22;11055;50.870;4.316;2022-09-29T08:31:54;10.20;99.90
21787;DHT22;11055;50.870;4.316;2022-09-29T08:34:21;10.20;99.90
21787;DHT22;11055;50.870;4.316;2022-09-29T08:36:46;10.20;99.90
21787;DHT22;11055;50.870;4.316;2022-09-29T08:39:12;10.30;99.90
21787;DHT22;11055;50.870;4.316;2022-09-29T08:46:51;10.40;99.90
21787;DHT22;11055;50.870;4.316;2022-09-29T08:49:38;10.50;99.90
21787;DHT22;11055;50.870;4.316;2022-09-29T08:52:07;10.60;99.90
21787;DHT22;11055;50.870;4.316;2022-09-29T08:54:35;10.80;99.90
21787;DHT22;11055;50.870;4.316;2022-09-29T08:57:02;10.90;99.90
21787;DHT22;11055;50.870;4.316;2022-09-29T08:59:28;10.90;99.90
21787;DHT22;11055;50.870;4.316;2022-09-29T09:17:11;11.40;99.90
21787;DHT22;11055;50.870;4.316;2022-09-29T09:24:47;11.70;99.90
21787;DHT22;11055;50.870;4.316;2022-09-29T09:27:15;11.80;99.90
21787;DHT22;11055;50.870;4.316;2022-09-29T09:29:41;11.80;99.90
21787;DHT22;11055;50.870;4.316;2022-09-29T09:32:09;11.90;99.90
21787;DHT22;11055;50.870;4.316;2022-09-29T09:37:05;11.90;99.90
21787;DHT22;11055;50.870;4.316;2022-09-29T09:39:34;12.00;99.90
21787;DHT22;11055;50.870;4.316;2022-09-29T09:42:01;12.00;99.90
21787;DHT22;11055;50.870;4.316;2022-09-29T09:44:31;12.00;99.90
21787;DHT22;11055;50.870;4.316;2022-09-29T09:46:58;11.90;99.90
21787;DHT22;11055;50.870;4.316;2022-09-29T09:49:26;12.00;99.90
21787;DHT22;11055;50.870;4.316;2022-09-29T09:51:58;12.10;99.90
21787;DHT22;11055;50.870;4.316;2022-09-29T09:54:28;12.10;99.90
21787;DHT22;11055;50.870;4.316;2022-09-29T09:59:53;12.40;99.90
21787;DHT22;11055;50.870;4.316;2022-09-29T10:02:24;12.40;99.90
21787;DHT22;11055;50.870;4.316;2022-09-29T10:04:50;12.50;99.90
21787;DHT22;11055;50.870;4.316;2022-09-29T10:07:17;12.60;99.90
21787;DHT22;11055;50.870;4.316;2022-09-29T10:09:43;12.60;99.90
21787;DHT22;11055;50.870;4.316;2022-09-29T10:12:13;12.70;99.90
21787;DHT22;11055;50.870;4.316;2022-09-29T10:14:39;12.70;99.90
21787;DHT22;11055;50.870;4.316;2022-09-29T10:17:10;12.80;99.90
21787;DHT22;11055;50.870;4.316;2022-09-29T10:19:53;12.80;99.90
21787;DHT22;11055;50.870;4.316;2022-09-29T10:22:19;12.90;99.90
21787;DHT22;11055;50.870;4.316;2022-09-29T10:24:45;13.10;99.90
21787;DHT22;11055;50.870;4.316;2022-09-29T10:27:11;13.20;99.90
21787;DHT22;11055;50.870;4.316;2022-09-29T10:29:42;13.10;99.90
21787;DHT22;11055;50.870;4.316;2022-09-29T10:32:12;13.00;99.90
21787;DHT22;11055;50.870;4.316;2022-09-29T10:34:41;13.00;99.90
21787;DHT22;11055;50.870;4.316;2022-09-29T10:37:18;13.10;99.90
21787;DHT22;11055;50.870;4.316;2022-09-29T10:39:47;13.20;99.90
21787;DHT22;11055;50.870;4.316;2022-09-29T10:44:52;13.50;99.90
21787;DHT22;11055;50.870;4.316;2022-09-29T10:47:18;13.70;99.90
21787;DHT22;11055;50.870;4.316;2022-09-29T10:49:44;13.70;99.90
21787;DHT22;11055;50.870;4.316;2022-09-29T10:52:20;13.80;99.90
21787;DHT22;11055;50.870;4.316;2022-09-29T10:57:38;14.10;99.90
21787;DHT22;11055;50.870;4.316;2022-09-29T11:00:04;14.40;99.90
21787;DHT22;11055;50.870;4.316;2022-09-29T11:02:32;14.30;99.90
21787;DHT22;11055;50.870;4.316;2022-09-29T11:05:00;14.40;99.90
21787;DHT22;11055;50.870;4.316;2022-09-29T11:07:27;14.50;99.90
21787;DHT22;11055;50.870;4.316;2022-09-29T11:09:53;14.70;99.90
21787;DHT22;11055;50.870;4.316;2022-09-29T11:12:32;15.00;99.90
21787;DHT22;11055;50.870;4.316;2022-09-29T11:14:59;15.40;99.90
21787;DHT22;11055;50.870;4.316;2022-09-29T11:17:29;15.70;99.90
21787;DHT22;11055;50.870;4.316;2022-09-29T11:19:59;15.60;99.90
21787;DHT22;11055;50.870;4.316;2022-09-29T11:25:14;15.40;99.90
21787;DHT22;11055;50.870;4.316;2022-09-29T11:30:19;15.30;99.90
21787;DHT22;11055;50.870;4.316;2022-09-29T11:40:28;15.40;99.90
21787;DHT22;11055;50.870;4.316;2022-09-29T11:46:24;14.90;99.90
21787;DHT22;11055;50.870;4.316;2022-09-29T11:49:32;14.90;99.90
21787;DHT22;11055;50.870;4.316;2022-09-29T11:56:54;15.60;99.90
21787;DHT22;11055;50.870;4.316;2022-09-29T11:59:28;15.70;99.90
21787;DHT22;11055;50.870;4.316;2022-09-29T12:02:14;15.40;99.90
21787;DHT22;11055;50.870;4.316;2022-09-29T12:17:47;17.60;99.90
21787;DHT22;11055;50.870;4.316;2022-09-29T12:20:25;18.80;99.90
21787;DHT22;11055;50.870;4.316;2022-09-29T12:22:52;19.00;99.90
21787;DHT22;11055;50.870;4.316;2022-09-29T12:25:20;19.60;99.90
21787;DHT22;11055;50.870;4.316;2022-09-29T12:27:49;19.90;99.90
21787;DHT22;11055;50.870;4.316;2022-09-29T12:35:23;21.40;99.80
21787;DHT22;11055;50.870;4.316;2022-09-29T12:40:36;24.60;91.10
21787;DHT22;11055;50.870;4.316;2022-09-29T12:45:57;32.60;60.80
21787;DHT22;11055;50.870;4.316;2022-09-29T12:53:36;26.10;64.30
21787;DHT22;11055;50.870;4.316;2022-09-29T12:56:06;24.50;66.10
21787;DHT22;11055;50.870;4.316;2022-09-29T12:58:44;23.10;72.90
21787;DHT22;11055;50.870;4.316;2022-09-29T13:01:22;24.00;69.20
21787;DHT22;11055;50.870;4.316;2022-09-29T13:06:27;25.50;66.60
21787;DHT22;11055;50.870;4.316;2022-09-29T13:09:16;25.90;67.40
21787;DHT22;11055;50.870;4.316;2022-09-29T13:14:14;32.50;56.50
21787;DHT22;11055;50.870;4.316;2022-09-29T13:16:47;37.90;44.00
21787;DHT22;11055;50.870;4.316;2022-09-29T13:19:20;37.20;39.50
21787;DHT22;11055;50.870;4.316;2022-09-29T13:22:15;33.90;42.00
21787;DHT22;11055;50.870;4.316;2022-09-29T13:27:13;27.30;48.10
21787;DHT22;11055;50.870;4.316;2022-09-29T13:29:44;24.40;54.60
21787;DHT22;11055;50.870;4.316;2022-09-29T13:32:11;23.00;61.00
21787;DHT22;11055;50.870;4.316;2022-09-29T13:34:38;23.20;60.70
21787;DHT22;11055;50.870;4.316;2022-09-29T13:37:13;27.30;56.50
21787;DHT22;11055;50.870;4.316;2022-09-29T13:39:40;33.80;47.80
21787;DHT22;11055;50.870;4.316;2022-09-29T13:47:35;33.60;40.40
21787;DHT22;11055;50.870;4.316;2022-09-29T13:52:53;27.20;47.10
21787;DHT22;11055;50.870;4.316;2022-09-29T13:58:03;23.50;55.80
21787;DHT22;11055;50.870;4.316;2022-09-29T14:00:28;22.80;57.80
21787;DHT22;11055;50.870;4.316;2022-09-29T14:03:05;22.10;60.50
21787;DHT22;11055;50.870;4.316;2022-09-29T14:05:35;21.50;63.90
21787;DHT22;11055;50.870;4.316;2022-09-29T14:15:27;20.70;73.30
21787;DHT22;11055;50.870;4.316;2022-09-29T14:17:58;20.00;75.90
21787;DHT22;11055;50.870;4.316;2022-09-29T14:20:28;18.70;84.80
21787;DHT22;11055;50.870;4.316;2022-09-29T14:35:34;18.50;96.10
21787;DHT22;11055;50.870;4.316;2022-09-29T14:38:12;18.40;96.20
21787;DHT22;11055;50.870;4.316;2022-09-29T14:40:40;18.60;97.20
21787;DHT22;11055;50.870;4.316;2022-09-29T14:43:17;18.30;96.70
21787;DHT22;11055;50.870;4.316;2022-09-29T14:45:53;17.70;98.00
21787;DHT22;11055;50.870;4.316;2022-09-29T14:48:51;17.30;99.00
21787;DHT22;11055;50.870;4.316;2022-09-29T14:52:13;17.10;99.90
21787;DHT22;11055;50.870;4.316;2022-09-29T14:57:21;17.00;99.90
21787;DHT22;11055;50.870;4.316;2022-09-29T15:04:42;17.10;99.90
21787;DHT22;11055;50.870;4.316;2022-09-29T15:07:29;17.00;99.90
21787;DHT22;11055;50.870;4.316;2022-09-29T15:09:54;16.80;99.90
21787;DHT22;11055;50.870;4.316;2022-09-29T15:12:22;16.70;99.90
21787;DHT22;11055;50.870;4.316;2022-09-29T15:14:50;16.20;99.90
21787;DHT22;11055;50.870;4.316;2022-09-29T15:20:04;16.00;99.90
21787;DHT22;11055;50.870;4.316;2022-09-29T15:27:54;16.40;99.90
21787;DHT22;11055;50.870;4.316;2022-09-29T15:30:21;16.50;99.90
21787;DHT22;11055;50.870;4.316;2022-09-29T15:32:48;16.70;99.90
21787;DHT22;11055;50.870;4.316;2022-09-29T15:35:15;16.80;99.90
21787;DHT22;11055;50.870;4.316;2022-09-29T15:37:55;16.80;99.90
21787;DHT22;11055;50.870;4.316;2022-09-29T15:40:22;16.70;99.90
21787;DHT22;11055;50.870;4.316;2022-09-29T15:42:48;16.30;99.90
21787;DHT22;11055;50.870;4.316;2022-09-29T15:45:17;16.10;99.90
21787;DHT22;11055;50.870;4.316;2022-09-29T15:47:45;15.90;99.90
21787;DHT22;11055;50.870;4.316;2022-09-29T15:50:21;15.80;99.90
21787;DHT22;11055;50.870;4.316;2022-09-29T15:52:46;15.70;99.90
21787;DHT22;11055;50.870;4.316;2022-09-29T15:55:13;15.70;99.90
21787;DHT22;11055;50.870;4.316;2022-09-29T16:02:59;15.50;99.90
21787;DHT22;11055;50.870;4.316;2022-09-29T16:05:27;15.60;99.90
21787;DHT22;11055;50.870;4.316;2022-09-29T16:07:55;15.50;99.90
21787;DHT22;11055;50.870;4.316;2022-09-29T16:10:27;15.50;99.90
21787;DHT22;11055;50.870;4.316;2022-09-29T16:13:01;15.40;99.90
21787;DHT22;11055;50.870;4.316;2022-09-29T16:15:30;15.30;99.90
21787;DHT22;11055;50.870;4.316;2022-09-29T16:18:01;15.20;99.90
21787;DHT22;11055;50.870;4.316;2022-09-29T16:20:30;15.20;99.90
21787;DHT22;11055;50.870;4.316;2022-09-29T16:23:04;15.20;99.90
21787;DHT22;11055;50.870;4.316;2022-09-29T16:25:30;15.40;99.90
21787;DHT22;11055;50.870;4.316;2022-09-29T16:27:59;15.70;99.90
21787;DHT22;11055;50.870;4.316;2022-09-29T16:30:26;15.80;99.90
21787;DHT22;11055;50.870;4.316;2022-09-29T16:32:53;15.70;99.90
21787;DHT22;11055;50.870;4.316;2022-09-29T16:38:26;15.70;99.90
21787;DHT22;11055;50.870;4.316;2022-09-29T16:40:55;15.70;99.90
21787;DHT22;11055;50.870;4.316;2022-09-29T16:45:50;15.70;99.90
21787;DHT22;11055;50.870;4.316;2022-09-29T16:48:16;15.60;99.90
21787;DHT22;11055;50.870;4.316;2022-09-29T16:50:45;15.30;99.90
21787;DHT22;11055;50.870;4.316;2022-09-29T16:53:20;15.00;99.90
21787;DHT22;11055;50.870;4.316;2022-09-29T16:58:44;15.10;99.90
21787;DHT22;11055;50.870;4.316;2022-09-29T17:01:10;15.10;99.90
21787;DHT22;11055;50.870;4.316;2022-09-29T17:03:39;15.10;99.90
21787;DHT22;11055;50.870;4.316;2022-09-29T17:06:07;14.90;99.90
21787;DHT22;11055;50.870;4.316;2022-09-29T17:08:32;14.70;99.90
21787;DHT22;11055;50.870;4.316;2022-09-29T17:10:59;14.70;99.90
21787;DHT22;11055;50.870;4.316;2022-09-29T17:13:26;14.70;99.90
21787;DHT22;11055;50.870;4.316;2022-09-29T17:15:52;14.50;99.90
21787;DHT22;11055;50.870;4.316;2022-09-29T17:18:18;14.40;99.90
21787;DHT22;11055;50.870;4.316;2022-09-29T17:20:44;14.30;99.90
21787;DHT22;11055;50.870;4.316;2022-09-29T17:23:10;14.30;99.90
21787;DHT22;11055;50.870;4.316;2022-09-29T17:25:37;14.40;99.90
21787;DHT22;11055;50.870;4.316;2022-09-29T17:28:03;14.60;99.90
21787;DHT22;11055;50.870;4.316;2022-09-29T17:30:46;14.70;99.90
21787;DHT22;11055;50.870;4.316;2022-09-29T17:33:13;14.70;99.90
21787;DHT22;11055;50.870;4.316;2022-09-29T17:35:42;14.80;99.90
21787;DHT22;11055;50.870;4.316;2022-09-29T17:38:09;14.90;99.90
21787;DHT22;11055;50.870;4.316;2022-09-29T17:40:45;15.20;99.90
21787;DHT22;11055;50.870;4.316;2022-09-29T17:43:12;15.30;99.90
21787;DHT22;11055;50.870;4.316;2022-09-29T17:45:38;15.40;99.90
21787;DHT22;11055;50.870;4.316;2022-09-29T17:48:06;15.30;99.90
21787;DHT22;11055;50.870;4.316;2022-09-29T17:50:33;15.20;99.90
21787;DHT22;11055;50.870;4.316;2022-09-29T17:53:04;15.10;99.90
21787;DHT22;11055;50.870;4.316;2022-09-29T17:55:29;15.10;99.90
21787;DHT22;11055;50.870;4.316;2022-09-29T17:57:55;14.90;99.90
21787;DHT22;11055;50.870;4.316;2022-09-29T18:00:30;14.70;99.90
21787;DHT22;11055;50.870;4.316;2022-09-29T18:02:56;14.50;99.90
21787;DHT22;11055;50.870;4.316;2022-09-29T18:05:24;14.40;99.90
21787;DHT22;11055;50.870;4.316;2022-09-29T18:07:51;14.40;99.90
21787;DHT22;11055;50.870;4.316;2022-09-29T18:10:19;14.60;99.90
21787;DHT22;11055;50.870;4.316;2022-09-29T18:12:45;14.90;99.90
21787;DHT22;11055;50.870;4.316;2022-09-29T18:15:10;15.10;99.90
21787;DHT22;11055;50.870;4.316;2022-09-29T18:17:36;15.30;99.90
21787;DHT22;11055;50.870;4.316;2022-09-29T18:20:15;15.40;99.90
21787;DHT22;11055;50.870;4.316;2022-09-29T18:22:41;15.10;99.90
21787;DHT22;11055;50.870;4.316;2022-09-29T18:25:08;14.70;99.90
21787;DHT22;11055;50.870;4.316;2022-09-29T18:27:34;14.50;99.90
21787;DHT22;11055;50.870;4.316;2022-09-29T18:30:02;14.50;99.90
21787;DHT22;11055;50.870;4.316;2022-09-29T18:32:27;14.70;99.90
21787;DHT22;11055;50.870;4.316;2022-09-29T18:34:53;14.70;99.90
21787;DHT22;11055;50.870;4.316;2022-09-29T18:37:18;14.30;99.90
21787;DHT22;11055;50.870;4.316;2022-09-29T18:39:44;14.20;99.90
21787;DHT22;11055;50.870;4.316;2022-09-29T18:42:09;14.00;99.90
21787;DHT22;11055;50.870;4.316;2022-09-29T18:44:36;14.00;99.90
21787;DHT22;11055;50.870;4.316;2022-09-29T18:47:02;14.30;99.90
21787;DHT22;11055;50.870;4.316;2022-09-29T18:49:27;14.60;99.90
21787;DHT22;11055;50.870;4.316;2022-09-29T18:51:53;14.80;99.90
21787;DHT22;11055;50.870;4.316;2022-09-29T18:54:18;14.60;99.90
21787;DHT22;11055;50.870;4.316;2022-09-29T18:56:44;14.70;99.90